Time;durP1;ratioP1;P1;durP2;ratioP2;P2;SDS_P1;SDS_P2;PMS_P1;PMS_P2;Temp;Humidity;BMP_temperature;BMP_pressure;BME280_temperature;BME280_humidity;BME280_pressure;Samples;Min_cycle;Max_cycle;Signal;HPM_P1;HPM_P2
2022/01/12 00:01:24;;;;;;;;;;;;;;;;;;5010321;28;20330;-56
2022/01/12 00:03:50;;;;;;;;;;;;;;;;;;5011967;28;19921;-57
2022/01/12 00:06:15;;;;;;;;;;;;;;;;;;5011248;28;19921;-58
2022/01/12 00:08:41;;;;;;;;;;;;;;;;;;5009080;28;20743;-58
2022/01/12 00:11:07;;;;;;;;;;;;;;;;;;5010917;28;19929;-58
2022/01/12 00:13:32;;;;;;;;;;;;;;;;;;5010673;28;20030;-58
2022/01/12 00:15:58;;;;;;;;;;;;;;;;;;5012713;28;20619;-58
2022/01/12 00:18:23;;;;;;;;;;;;;;;;;;5009575;28;19921;-58
2022/01/12 00:20:49;;;;;;;;;;;;;;;;;;5012277;28;20248;-57
2022/01/12 00:23:15;;;;;;;;;;;;;;;;;;5010589;28;20014;-58
2022/01/12 00:33:53;;;;;;;;;;;;;;;;;;5010039;28;19928;-57
2022/01/12 00:36:18;;;;;;;;;;;;;;;;;;5010547;28;20274;-58
2022/01/12 00:38:43;;;;;;;;;;;;;;;;;;5009748;28;19921;-58
2022/01/12 00:41:09;;;;;;;;;;;;;;;;;;5009587;28;19932;-58
2022/01/12 00:43:37;;;;;;;;;;;;;;;;;;5008999;28;19922;-57
2022/01/12 00:46:02;;;;;;;;;;;;;;;;;;5010154;28;20736;-56
2022/01/12 00:48:28;;;;;;;;;;;;;;;;;;5007064;28;20376;-57
2022/01/12 00:50:53;;;;;;;;;;;;;;;;;;5009985;28;19929;-57
2022/01/12 00:53:19;;;;;;;;;;;;;;;;;;5008030;28;20283;-57
2022/01/12 00:55:44;;;;;;;;;;;;;;;;;;5009568;28;20068;-57
2022/01/12 00:58:09;;;;;;;;;;;;;;;;;;5009069;28;20411;-56
2022/01/12 01:00:35;;;;;;;;;;;;;;;;;;5008001;28;19921;-57
2022/01/12 01:03:00;;;;;;;;;;;;;;;;;;5023637;28;21014;-57
2022/01/12 01:05:26;;;;;;;;;;;;;;;;;;5011245;28;19932;-57
2022/01/12 01:07:52;;;;;;;;;;;;;;;;;;5011250;28;19972;-57
2022/01/12 01:10:27;;;;;;;;;;;;;;;;;;4997710;28;20023;-58
2022/01/12 01:12:52;;;;;;;;;;;;;;;;;;5010058;28;19964;-56
2022/01/12 01:15:27;;;;;;;;;;;;;;;;;;5010116;28;20048;-57
2022/01/12 01:26:04;;;;;;;;;;;;;;;;;;5010466;28;19929;-57
2022/01/12 01:28:29;;;;;;;;;;;;;;;;;;5008911;28;19945;-57
2022/01/12 01:30:55;;;;;;;;;;;;;;;;;;5010657;28;20329;-58
2022/01/12 01:33:21;;;;;;;;;;;;;;;;;;5011825;28;20071;-57
2022/01/12 01:35:50;;;;;;;;;;;;;;;;;;5011516;28;20007;-58
2022/01/12 01:38:16;;;;;;;;;;;;;;;;;;5011764;28;19929;-55
2022/01/12 01:40:42;;;;;;;;;;;;;;;;;;5007798;28;19947;-60
2022/01/12 01:43:21;;;;;;;;;;;;;;;;;;5011452;28;19935;-60
2022/01/12 01:53:59;;;;;;;;;;;;;;;;;;5014381;28;19995;-57
2022/01/12 01:56:25;;;;;;;;;;;;;;;;;;5016196;28;19964;-58
2022/01/12 01:58:50;;;;;;;;;;;;;;;;;;5016122;28;19949;-58
2022/01/12 02:01:16;;;;;;;;;;;;;;;;;;5015425;28;19931;-57
2022/01/12 02:03:41;;;;;;;;;;;;;;;;;;5012830;28;20476;-57
2022/01/12 02:06:07;;;;;;;;;;;;;;;;;;5012459;28;19925;-57
2022/01/12 02:08:33;;;;;;;;;;;;;;;;;;5006079;28;19968;-57
2022/01/12 02:10:59;;;;;;;;;;;;;;;;;;5011026;28;19959;-58
2022/01/12 02:13:24;;;;;;;;;;;;;;;;;;5013232;28;19960;-57
2022/01/12 02:15:50;;;;;;;;;;;;;;;;;;5014103;28;19932;-55
2022/01/12 02:39:43;;;;;;;;;;;;;;;;;;5011855;28;20397;-56
2022/01/12 02:39:59;;;;;;;;;;;;;;;;;;5012244;28;19924;-57
2022/01/12 02:42:26;;;;;;;;;;;;;;;;;;5011695;28;19933;-57
2022/01/12 02:55:46;;;;;;;;;;;;;;;;;;5014008;28;19968;-56
2022/01/12 02:58:12;;;;;;;;;;;;;;;;;;5011829;28;19976;-57
2022/01/12 03:03:23;;;;;;;;;;;;;;;;;;5011755;28;20002;-57
2022/01/12 03:05:57;;;;;;;;;;;;;;;;;;5013012;28;19921;-56
2022/01/12 03:08:24;;;;;;;;;;;;;;;;;;5010375;28;19926;-57
2022/01/12 03:10:50;;;;;;;;;;;;;;;;;;5012132;28;19925;-55
2022/01/12 03:13:15;;;;;;;;;;;;;;;;;;5011006;28;19925;-55
2022/01/12 03:15:41;;;;;;;;;;;;;;;;;;5008373;28;20476;-57
2022/01/12 03:18:07;;;;;;;;;;;;;;;;;;5011215;28;19979;-57
2022/01/12 03:20:32;;;;;;;;;;;;;;;;;;5011095;28;19926;-57
2022/01/12 03:22:58;;;;;;;;;;;;;;;;;;5012619;28;20338;-57
2022/01/12 03:25:23;;;;;;;;;;;;;;;;;;5011789;28;20390;-57
2022/01/12 03:27:49;;;;;;;;;;;;;;;;;;5012385;28;19964;-58
2022/01/12 03:30:15;;;;;;;;;;;;;;;;;;5011321;28;19926;-57
2022/01/12 03:32:46;;;;;;;;;;;;;;;;;;5012435;28;19928;-58
2022/01/12 03:35:24;;;;;;;;;;;;;;;;;;5013912;28;19932;-58
2022/01/12 03:40:33;;;;;;;;;;;;;;;;;;5011624;28;19932;-57
2022/01/12 03:42:58;;;;;;;;;;;;;;;;;;5011396;28;19929;-59
2022/01/12 03:45:24;;;;;;;;;;;;;;;;;;5010454;28;20740;-60
2022/01/12 03:47:49;;;;;;;;;;;;;;;;;;5011397;28;19928;-55
2022/01/12 03:50:15;;;;;;;;;;;;;;;;;;5012104;28;20026;-57
2022/01/12 03:52:40;;;;;;;;;;;;;;;;;;5012975;28;19932;-57
2022/01/12 03:55:05;;;;;;;;;;;;;;;;;;5012688;28;19926;-57
2022/01/12 03:57:31;;;;;;;;;;;;;;;;;;5008375;28;20101;-56
2022/01/12 03:59:56;;;;;;;;;;;;;;;;;;5011313;28;20376;-55
2022/01/12 04:02:23;;;;;;;;;;;;;;;;;;5010082;28;20279;-56
2022/01/12 04:05:10;;;;;;;;;;;;;;;;;;5011099;28;19992;-57
2022/01/12 04:10:19;;;;;;;;;;;;;;;;;;5010954;28;19928;-56
2022/01/12 04:12:45;;;;;;;;;;;;;;;;;;5011283;28;19921;-54
2022/01/12 04:15:10;;;;;;;;;;;;;;;;;;5011424;28;19932;-55
2022/01/12 04:17:36;;;;;;;;;;;;;;;;;;5009888;28;20059;-55
2022/01/12 04:20:03;;;;;;;;;;;;;;;;;;5010400;28;21597;-57
2022/01/12 04:25:12;;;;;;;;;;;;;;;;;;5010097;28;20307;-57
2022/01/12 04:27:39;;;;;;;;;;;;;;;;;;5010789;28;20016;-56
2022/01/12 04:30:04;;;;;;;;;;;;;;;;;;5010856;28;19921;-57
2022/01/12 04:32:30;;;;;;;;;;;;;;;;;;5011273;28;19925;-58
2022/01/12 04:34:55;;;;;;;;;;;;;;;;;;5009875;28;20004;-56
2022/01/12 04:37:21;;;;;;;;;;;;;;;;;;5009892;28;19921;-56
2022/01/12 04:39:46;;;;;;;;;;;;;;;;;;5011310;28;20858;-57
2022/01/12 04:42:11;;;;;;;;;;;;;;;;;;5010715;28;19933;-55
2022/01/12 04:44:43;;;;;;;;;;;;;;;;;;5009030;28;19925;-58
2022/01/12 04:47:15;;;;;;;;;;;;;;;;;;5009674;28;20262;-56
2022/01/12 04:49:47;;;;;;;;;;;;;;;;;;5008256;28;19991;-58
2022/01/12 04:52:13;;;;;;;;;;;;;;;;;;5011376;28;20401;-58
2022/01/12 04:54:38;;;;;;;;;;;;;;;;;;5011687;28;19921;-57
2022/01/12 04:57:04;;;;;;;;;;;;;;;;;;5009760;28;19956;-57
2022/01/12 04:59:31;;;;;;;;;;;;;;;;;;5008011;28;20392;-57
2022/01/12 05:02:10;;;;;;;;;;;;;;;;;;5009300;28;20035;-58
2022/01/12 05:07:44;;;;;;;;;;;;;;;;;;4997324;28;19928;-58
2022/01/12 05:12:55;;;;;;;;;;;;;;;;;;5010818;28;19983;-56
2022/01/12 05:15:31;;;;;;;;;;;;;;;;;;5009991;28;19917;-57
2022/01/12 05:17:57;;;;;;;;;;;;;;;;;;5009996;28;19969;-58
2022/01/12 05:20:22;;;;;;;;;;;;;;;;;;5009554;28;19975;-57
2022/01/12 05:22:48;;;;;;;;;;;;;;;;;;5010419;28;20393;-57
2022/01/12 05:25:13;;;;;;;;;;;;;;;;;;5008699;28;19926;-57
2022/01/12 05:27:39;;;;;;;;;;;;;;;;;;5009367;28;19925;-57
2022/01/12 05:30:04;;;;;;;;;;;;;;;;;;5010699;28;19917;-57
2022/01/12 05:32:29;;;;;;;;;;;;;;;;;;5009940;28;19918;-57
2022/01/12 05:34:58;;;;;;;;;;;;;;;;;;5014944;28;19948;-56
2022/01/12 05:37:24;;;;;;;;;;;;;;;;;;5012788;28;19925;-57
2022/01/12 05:39:49;;;;;;;;;;;;;;;;;;5013119;28;19918;-57
2022/01/12 05:42:14;;;;;;;;;;;;;;;;;;5013147;28;20202;-57
2022/01/12 05:44:41;;;;;;;;;;;;;;;;;;5013213;28;19922;-57
2022/01/12 05:47:17;;;;;;;;;;;;;;;;;;5014028;28;19960;-58
2022/01/12 05:49:44;;;;;;;;;;;;;;;;;;5012473;28;19976;-57
2022/01/12 05:52:10;;;;;;;;;;;;;;;;;;5014410;28;19975;-57
2022/01/12 05:54:35;;;;;;;;;;;;;;;;;;5014026;28;20011;-58
2022/01/12 05:57:00;;;;;;;;;;;;;;;;;;5015733;28;19941;-57
2022/01/12 05:59:26;;;;;;;;;;;;;;;;;;5014379;28;20002;-57
2022/01/12 06:01:51;;;;;;;;;;;;;;;;;;5015082;28;19976;-57
2022/01/12 06:04:17;;;;;;;;;;;;;;;;;;5002163;28;19947;-57
2022/01/12 06:06:42;;;;;;;;;;;;;;;;;;5013286;28;20051;-57
2022/01/12 06:09:07;;;;;;;;;;;;;;;;;;5012366;28;20351;-58
2022/01/12 06:11:33;;;;;;;;;;;;;;;;;;5012297;28;19921;-57
2022/01/12 06:13:59;;;;;;;;;;;;;;;;;;5014506;28;19929;-58
2022/01/12 06:16:24;;;;;;;;;;;;;;;;;;5014524;28;19932;-57
2022/01/12 06:18:50;;;;;;;;;;;;;;;;;;5015032;28;19948;-57
2022/01/12 06:21:15;;;;;;;;;;;;;;;;;;5013189;28;19959;-57
2022/01/12 06:23:40;;;;;;;;;;;;;;;;;;5014464;28;19933;-57
2022/01/12 06:26:06;;;;;;;;;;;;;;;;;;5014270;28;19929;-58
2022/01/12 06:31:17;;;;;;;;;;;;;;;;;;5014800;28;20313;-57
2022/01/12 06:33:43;;;;;;;;;;;;;;;;;;5014413;28;19925;-57
2022/01/12 06:36:08;;;;;;;;;;;;;;;;;;5014713;28;20008;-57
2022/01/12 06:38:33;;;;;;;;;;;;;;;;;;5013901;28;19960;-57
2022/01/12 06:40:59;;;;;;;;;;;;;;;;;;5014780;28;19936;-57
2022/01/12 06:43:27;;;;;;;;;;;;;;;;;;5013040;28;19953;-56
2022/01/12 06:45:52;;;;;;;;;;;;;;;;;;5012612;28;20950;-56
2022/01/12 06:48:18;;;;;;;;;;;;;;;;;;5010589;28;19927;-55
2022/01/12 06:50:43;;;;;;;;;;;;;;;;;;5013220;28;19937;-58
2022/01/12 06:53:09;;;;;;;;;;;;;;;;;;5013983;28;20020;-56
2022/01/12 06:55:34;;;;;;;;;;;;;;;;;;5009634;28;20463;-57
2022/01/12 06:57:59;;;;;;;;;;;;;;;;;;5010899;28;19921;-58
2022/01/12 07:00:25;;;;;;;;;;;;;;;;;;5013064;28;19925;-57
2022/01/12 07:02:50;;;;;;;;;;;;;;;;;;5013555;28;19929;-58
2022/01/12 07:05:16;;;;;;;;;;;;;;;;;;5014819;28;19932;-57
2022/01/12 07:07:41;;;;;;;;;;;;;;;;;;5016534;28;19922;-56
2022/01/12 07:10:26;;;;;;;;;;;;;;;;;;4960198;28;19926;-57
2022/01/12 07:12:52;;;;;;;;;;;;;;;;;;4959811;28;19926;-58
2022/01/12 07:15:17;;;;;;;;;;;;;;;;;;4958562;28;19926;-57
2022/01/12 07:17:43;;;;;;;;;;;;;;;;;;4959554;28;20411;-57
2022/01/12 07:20:08;;;;;;;;;;;;;;;;;;4975424;28;19944;-57
2022/01/12 07:22:33;;;;;;;;;;;;;;;;;;4958855;28;20303;-57
2022/01/12 07:24:59;;;;;;;;;;;;;;;;;;4959329;28;19958;-56
2022/01/12 07:27:24;;;;;;;;;;;;;;;;;;4958019;28;19918;-57
2022/01/12 07:29:50;;;;;;;;;;;;;;;;;;4960349;28;20371;-56
2022/01/12 07:32:15;;;;;;;;;;;;;;;;;;4959842;28;19965;-56
2022/01/12 07:34:40;;;;;;;;;;;;;;;;;;4958996;28;19926;-57
2022/01/12 07:37:06;;;;;;;;;;;;;;;;;;4960665;28;20388;-56
2022/01/12 07:39:31;;;;;;;;;;;;;;;;;;4958723;28;20292;-56
2022/01/12 07:41:57;;;;;;;;;;;;;;;;;;4995701;28;19933;-54
2022/01/12 07:44:22;;;;;;;;;;;;;;;;;;5013219;28;20009;-57
2022/01/12 07:46:48;;;;;;;;;;;;;;;;;;5013146;28;19960;-57
2022/01/12 07:49:13;;;;;;;;;;;;;;;;;;5013694;28;20263;-57
2022/01/12 07:51:38;;;;;;;;;;;;;;;;;;5013425;28;19929;-57
2022/01/12 07:54:04;;;;;;;;;;;;;;;;;;5013037;28;20386;-58
2022/01/12 07:56:29;;;;;;;;;;;;;;;;;;5012179;28;19921;-57
2022/01/12 07:58:55;;;;;;;;;;;;;;;;;;5011747;28;20474;-57
2022/01/12 08:01:20;;;;;;;;;;;;;;;;;;5011791;28;19921;-57
2022/01/12 08:03:46;;;;;;;;;;;;;;;;;;5011634;28;19944;-57
2022/01/12 08:06:11;;;;;;;;;;;;;;;;;;5011437;28;20015;-57
2022/01/12 08:08:36;;;;;;;;;;;;;;;;;;5008587;28;19925;-57
2022/01/12 08:11:02;;;;;;;;;;;;;;;;;;5012031;28;19921;-57
2022/01/12 08:13:27;;;;;;;;;;;;;;;;;;5010235;28;19925;-56
2022/01/12 08:15:53;;;;;;;;;;;;;;;;;;5011191;28;19925;-57
2022/01/12 08:18:18;;;;;;;;;;;;;;;;;;5010752;28;20398;-57
2022/01/12 08:20:43;;;;;;;;;;;;;;;;;;5011749;28;19925;-58
2022/01/12 08:23:09;;;;;;;;;;;;;;;;;;5012180;28;19933;-57
2022/01/12 08:25:38;;;;;;;;;;;;;;;;;;5011603;28;19929;-56
2022/01/12 08:28:04;;;;;;;;;;;;;;;;;;5012230;28;20457;-57
2022/01/12 08:30:31;;;;;;;;;;;;;;;;;;5029105;28;19932;-56
2022/01/12 08:32:56;;;;;;;;;;;;;;;;;;5014621;28;19925;-57
2022/01/12 08:35:22;;;;;;;;;;;;;;;;;;5012384;28;20398;-56
2022/01/12 08:37:47;;;;;;;;;;;;;;;;;;5014543;28;19925;-56
2022/01/12 08:40:13;;;;;;;;;;;;;;;;;;5013254;28;19930;-56
2022/01/12 08:42:38;;;;;;;;;;;;;;;;;;5012341;28;20839;-56
2022/01/12 08:45:04;;;;;;;;;;;;;;;;;;5012641;28;19925;-56
2022/01/12 08:47:29;;;;;;;;;;;;;;;;;;5010967;28;19924;-56
2022/01/12 08:49:54;;;;;;;;;;;;;;;;;;5011433;28;19959;-57
2022/01/12 08:52:20;;;;;;;;;;;;;;;;;;5011112;28;19917;-56
2022/01/12 08:54:45;;;;;;;;;;;;;;;;;;5009791;28;20019;-57
2022/01/12 08:57:11;;;;;;;;;;;;;;;;;;5010842;28;19921;-56
2022/01/12 08:59:36;;;;;;;;;;;;;;;;;;5009190;28;19921;-57
2022/01/12 09:02:02;;;;;;;;;;;;;;;;;;5009949;28;19934;-58
2022/01/12 09:04:27;;;;;;;;;;;;;;;;;;5009551;28;20514;-57
2022/01/12 09:06:52;;;;;;;;;;;;;;;;;;5009125;28;19968;-56
2022/01/12 09:09:18;;;;;;;;;;;;;;;;;;5009464;28;20011;-57
2022/01/12 09:11:43;;;;;;;;;;;;;;;;;;5008098;28;19925;-57
2022/01/12 09:14:09;;;;;;;;;;;;;;;;;;5009186;28;20823;-56
2022/01/12 09:16:35;;;;;;;;;;;;;;;;;;5009233;28;19953;-56
2022/01/12 09:19:00;;;;;;;;;;;;;;;;;;5009093;28;19921;-53
2022/01/12 09:21:25;;;;;;;;;;;;;;;;;;5009198;28;21694;-56
2022/01/12 09:23:51;;;;;;;;;;;;;;;;;;5014086;28;20389;-55
2022/01/12 09:26:16;;;;;;;;;;;;;;;;;;5015446;28;19928;-56
2022/01/12 09:28:42;;;;;;;;;;;;;;;;;;5011587;28;19925;-56
2022/01/12 09:31:08;;;;;;;;;;;;;;;;;;5013186;28;20394;-56
2022/01/12 09:33:33;;;;;;;;;;;;;;;;;;5012978;28;19932;-56
2022/01/12 09:35:58;;;;;;;;;;;;;;;;;;5013863;28;20006;-56
2022/01/12 09:38:24;;;;;;;;;;;;;;;;;;5012902;28;19925;-56
2022/01/12 09:40:49;;;;;;;;;;;;;;;;;;5013677;28;20320;-56
2022/01/12 09:43:15;;;;;;;;;;;;;;;;;;5013319;28;19936;-54
2022/01/12 09:45:43;;;;;;;;;;;;;;;;;;5014692;28;20405;-56
2022/01/12 09:48:10;;;;;;;;;;;;;;;;;;5014042;28;19917;-56
2022/01/12 09:50:35;;;;;;;;;;;;;;;;;;5013681;28;19952;-56
2022/01/12 09:53:01;;;;;;;;;;;;;;;;;;5014470;28;20391;-56
2022/01/12 09:55:26;;;;;;;;;;;;;;;;;;4999196;28;20367;-56
2022/01/12 09:57:52;;;;;;;;;;;;;;;;;;5015428;28;19940;-57
2022/01/12 10:00:17;;;;;;;;;;;;;;;;;;5017284;28;19960;-56
2022/01/12 10:02:42;;;;;;;;;;;;;;;;;;5016866;28;20126;-56
2022/01/12 10:05:08;;;;;;;;;;;;;;;;;;5018121;28;20376;-57
2022/01/12 10:07:33;;;;;;;;;;;;;;;;;;5017915;28;19921;-57
2022/01/12 10:10:00;;;;;;;;;;;;;;;;;;5020202;28;19925;-57
2022/01/12 10:12:27;;;;;;;;;;;;;;;;;;5016184;28;20067;-57
2022/01/12 10:14:54;;;;;;;;;;;;;;;;;;5017681;28;20057;-57
2022/01/12 10:17:20;;;;;;;;;;;;;;;;;;5016177;28;20634;-56
2022/01/12 10:19:45;;;;;;;;;;;;;;;;;;5014189;28;19925;-56
2022/01/12 10:22:11;;;;;;;;;;;;;;;;;;5013559;28;19961;-56
2022/01/12 10:24:36;;;;;;;;;;;;;;;;;;5011756;28;19925;-56
2022/01/12 10:27:02;;;;;;;;;;;;;;;;;;5012566;28;20107;-56
2022/01/12 10:29:27;;;;;;;;;;;;;;;;;;5012936;28;19925;-55
2022/01/12 10:31:53;;;;;;;;;;;;;;;;;;5013916;28;19922;-55
2022/01/12 10:34:18;;;;;;;;;;;;;;;;;;5010724;28;19926;-55
2022/01/12 10:36:43;;;;;;;;;;;;;;;;;;5012026;28;19967;-56
2022/01/12 10:39:09;;;;;;;;;;;;;;;;;;5012047;28;19948;-56
2022/01/12 10:41:34;;;;;;;;;;;;;;;;;;5010991;28;19922;-56
2022/01/12 10:44:00;;;;;;;;;;;;;;;;;;5014154;28;19925;-54
2022/01/12 10:46:26;;;;;;;;;;;;;;;;;;5012066;28;20025;-56
2022/01/12 10:48:52;;;;;;;;;;;;;;;;;;5013021;28;19924;-56
2022/01/12 10:51:17;;;;;;;;;;;;;;;;;;5012709;28;19933;-56
2022/01/12 10:53:43;;;;;;;;;;;;;;;;;;5012099;28;20020;-55
2022/01/12 10:56:08;;;;;;;;;;;;;;;;;;5012481;28;19949;-57
2022/01/12 10:58:34;;;;;;;;;;;;;;;;;;5011420;28;19936;-57
2022/01/12 11:00:59;;;;;;;;;;;;;;;;;;5011914;28;20063;-57
2022/01/12 11:03:24;;;;;;;;;;;;;;;;;;5011653;28;19939;-58
2022/01/12 11:05:50;;;;;;;;;;;;;;;;;;5011876;28;20011;-57
2022/01/12 11:08:16;;;;;;;;;;;;;;;;;;5011065;28;19929;-57
2022/01/12 11:10:41;;;;;;;;;;;;;;;;;;5011500;28;20022;-58
2022/01/12 11:13:06;;;;;;;;;;;;;;;;;;5013534;28;19925;-56
2022/01/12 11:15:33;;;;;;;;;;;;;;;;;;5012776;28;20309;-58
2022/01/12 11:17:59;;;;;;;;;;;;;;;;;;5015162;28;19921;-57
2022/01/12 11:20:24;;;;;;;;;;;;;;;;;;5014036;28;19932;-58
2022/01/12 11:22:50;;;;;;;;;;;;;;;;;;5012153;28;19932;-57
2022/01/12 11:25:15;;;;;;;;;;;;;;;;;;5010913;28;19929;-57
2022/01/12 11:27:43;;;;;;;;;;;;;;;;;;5012167;28;20294;-57
2022/01/12 11:30:08;;;;;;;;;;;;;;;;;;5013013;28;20369;-57
2022/01/12 11:32:33;;;;;;;;;;;;;;;;;;5009851;28;19933;-56
2022/01/12 11:34:59;;;;;;;;;;;;;;;;;;5010630;28;19928;-56
2022/01/12 11:37:25;;;;;;;;;;;;;;;;;;5011801;28;19925;-57
2022/01/12 11:39:50;;;;;;;;;;;;;;;;;;5011127;28;19955;-57
2022/01/12 11:42:17;;;;;;;;;;;;;;;;;;5010709;28;20385;-56
2022/01/12 11:44:43;;;;;;;;;;;;;;;;;;5010705;28;19964;-56
2022/01/12 11:47:08;;;;;;;;;;;;;;;;;;5011320;28;19948;-57
2022/01/12 11:49:35;;;;;;;;;;;;;;;;;;5009745;28;19925;-55
2022/01/12 11:52:00;;;;;;;;;;;;;;;;;;5011142;28;19921;-56
2022/01/12 11:54:25;;;;;;;;;;;;;;;;;;5008252;28;19917;-57
2022/01/12 11:56:51;;;;;;;;;;;;;;;;;;5011311;28;20004;-57
2022/01/12 11:59:16;;;;;;;;;;;;;;;;;;5010380;28;20472;-55
2022/01/12 12:01:43;;;;;;;;;;;;;;;;;;5008714;28;20411;-57
2022/01/12 12:04:09;;;;;;;;;;;;;;;;;;5010382;28;19937;-57
2022/01/12 12:06:34;;;;;;;;;;;;;;;;;;5010104;28;19956;-57
2022/01/12 12:09:00;;;;;;;;;;;;;;;;;;5011151;28;19921;-56
2022/01/12 12:11:25;;;;;;;;;;;;;;;;;;5010629;28;19958;-56
2022/01/12 12:13:50;;;;;;;;;;;;;;;;;;5010188;28;20444;-56
2022/01/12 12:16:16;;;;;;;;;;;;;;;;;;5009793;28;19917;-57
2022/01/12 12:18:41;;;;;;;;;;;;;;;;;;5010118;28;19952;-54
2022/01/12 12:21:07;;;;;;;;;;;;;;;;;;5009945;28;20019;-57
2022/01/12 12:23:32;;;;;;;;;;;;;;;;;;5009503;28;19933;-57
2022/01/12 12:25:58;;;;;;;;;;;;;;;;;;5010033;28;19921;-58
2022/01/12 12:28:23;;;;;;;;;;;;;;;;;;5010090;28;19921;-57
2022/01/12 12:30:48;;;;;;;;;;;;;;;;;;5010900;28;20336;-56
2022/01/12 12:33:15;;;;;;;;;;;;;;;;;;5009558;28;20333;-57
2022/01/12 12:35:40;;;;;;;;;;;;;;;;;;5009659;28;19956;-57
2022/01/12 12:38:06;;;;;;;;;;;;;;;;;;5009884;28;20693;-56
2022/01/12 12:40:31;;;;;;;;;;;;;;;;;;5009469;28;19921;-57
2022/01/12 12:42:57;;;;;;;;;;;;;;;;;;5009761;28;20024;-57
2022/01/12 12:45:22;;;;;;;;;;;;;;;;;;5009123;28;20306;-57
2022/01/12 12:47:49;;;;;;;;;;;;;;;;;;5010501;28;20697;-56
2022/01/12 12:50:14;;;;;;;;;;;;;;;;;;5009512;28;19952;-57
2022/01/12 12:52:40;;;;;;;;;;;;;;;;;;5009173;28;19925;-56
2022/01/12 12:55:05;;;;;;;;;;;;;;;;;;5010492;28;19971;-57
2022/01/12 12:57:31;;;;;;;;;;;;;;;;;;5008934;28;19932;-55
2022/01/12 12:59:56;;;;;;;;;;;;;;;;;;5010097;28;19922;-57
2022/01/12 13:02:21;;;;;;;;;;;;;;;;;;5010148;28;20379;-55
2022/01/12 13:04:47;;;;;;;;;;;;;;;;;;5010491;28;19920;-57
2022/01/12 13:07:12;;;;;;;;;;;;;;;;;;5008361;28;19922;-57
2022/01/12 13:09:37;;;;;;;;;;;;;;;;;;5009425;28;20010;-54
2022/01/12 13:12:03;;;;;;;;;;;;;;;;;;5008509;28;20079;-57
2022/01/12 13:14:29;;;;;;;;;;;;;;;;;;5009447;28;19927;-55
2022/01/12 13:16:55;;;;;;;;;;;;;;;;;;5008001;28;19929;-57
2022/01/12 13:19:23;;;;;;;;;;;;;;;;;;5007934;28;19960;-57
2022/01/12 13:21:48;;;;;;;;;;;;;;;;;;5008921;28;19926;-55
2022/01/12 13:24:14;;;;;;;;;;;;;;;;;;5008082;28;19946;-55
2022/01/12 13:26:39;;;;;;;;;;;;;;;;;;5006933;28;19976;-55
2022/01/12 13:29:05;;;;;;;;;;;;;;;;;;5009996;28;19963;-53
2022/01/12 13:31:30;;;;;;;;;;;;;;;;;;5007365;28;20040;-56
2022/01/12 13:33:55;;;;;;;;;;;;;;;;;;5008338;28;19918;-56
2022/01/12 13:36:21;;;;;;;;;;;;;;;;;;5008130;28;19994;-53
2022/01/12 13:38:46;;;;;;;;;;;;;;;;;;5010170;28;19963;-56
2022/01/12 13:41:12;;;;;;;;;;;;;;;;;;5009432;28;19974;-56
2022/01/12 13:43:37;;;;;;;;;;;;;;;;;;4965153;28;19933;-57
2022/01/12 13:46:04;;;;;;;;;;;;;;;;;;4989009;28;19922;-56
2022/01/12 13:48:31;;;;;;;;;;;;;;;;;;4988387;28;20430;-57
2022/01/12 13:50:56;;;;;;;;;;;;;;;;;;4989577;28;19926;-58
2022/01/12 13:53:22;;;;;;;;;;;;;;;;;;4988004;28;20366;-57
2022/01/12 13:55:47;;;;;;;;;;;;;;;;;;4988473;28;19921;-57
2022/01/12 13:58:13;;;;;;;;;;;;;;;;;;4988602;28;19933;-55
2022/01/12 14:00:38;;;;;;;;;;;;;;;;;;4988319;28;20335;-57
2022/01/12 14:03:03;;;;;;;;;;;;;;;;;;4988771;28;19930;-57
2022/01/12 14:05:29;;;;;;;;;;;;;;;;;;4987894;28;19925;-56
2022/01/12 14:08:01;;;;;;;;;;;;;;;;;;4989830;28;19921;-56
2022/01/12 14:10:26;;;;;;;;;;;;;;;;;;4992167;28;20306;-56
2022/01/12 14:12:52;;;;;;;;;;;;;;;;;;4992440;28;19921;-57
2022/01/12 14:15:17;;;;;;;;;;;;;;;;;;4992793;28;20542;-57
2022/01/12 14:17:43;;;;;;;;;;;;;;;;;;4992488;28;19927;-53
2022/01/12 14:20:10;;;;;;;;;;;;;;;;;;4994734;28;20459;-54
2022/01/12 14:22:36;;;;;;;;;;;;;;;;;;4992609;28;19933;-57
2022/01/12 14:25:01;;;;;;;;;;;;;;;;;;4995455;28;19932;-56
2022/01/12 14:27:26;;;;;;;;;;;;;;;;;;4995574;28;19932;-58
2022/01/12 14:29:52;;;;;;;;;;;;;;;;;;5000363;28;20001;-56
2022/01/12 14:32:17;;;;;;;;;;;;;;;;;;4998471;28;19948;-57
2022/01/12 14:34:43;;;;;;;;;;;;;;;;;;4996131;28;19996;-56
2022/01/12 14:37:09;;;;;;;;;;;;;;;;;;4995218;28;19976;-56
2022/01/12 14:39:35;;;;;;;;;;;;;;;;;;4984765;28;20341;-56
2022/01/12 14:42:00;;;;;;;;;;;;;;;;;;4993716;28;19930;-56
2022/01/12 14:44:29;;;;;;;;;;;;;;;;;;4993339;28;19922;-56
2022/01/12 14:46:54;;;;;;;;;;;;;;;;;;4992189;28;19921;-56
2022/01/12 14:49:20;;;;;;;;;;;;;;;;;;4992742;28;19932;-57
2022/01/12 14:51:45;;;;;;;;;;;;;;;;;;4993685;28;19964;-57
2022/01/12 14:54:11;;;;;;;;;;;;;;;;;;4992497;28;19956;-57
2022/01/12 14:56:36;;;;;;;;;;;;;;;;;;4992606;28;19922;-56
2022/01/12 14:59:01;;;;;;;;;;;;;;;;;;4992228;28;19965;-56
2022/01/12 15:01:27;;;;;;;;;;;;;;;;;;4992440;28;20294;-55
2022/01/12 15:03:52;;;;;;;;;;;;;;;;;;4992305;28;20731;-56
2022/01/12 15:06:17;;;;;;;;;;;;;;;;;;4990798;28;19933;-55
2022/01/12 15:08:43;;;;;;;;;;;;;;;;;;4994075;28;19926;-56
2022/01/12 15:11:10;;;;;;;;;;;;;;;;;;4993478;28;19989;-54
2022/01/12 15:13:46;;;;;;;;;;;;;;;;;;4991008;28;19932;-57
2022/01/12 15:16:11;;;;;;;;;;;;;;;;;;4992766;28;19918;-56
2022/01/12 15:18:36;;;;;;;;;;;;;;;;;;4991337;28;19932;-57
2022/01/12 15:21:02;;;;;;;;;;;;;;;;;;4994249;28;19925;-53
2022/01/12 15:23:27;;;;;;;;;;;;;;;;;;4991992;28;19977;-54
2022/01/12 15:25:55;;;;;;;;;;;;;;;;;;4992034;28;19921;-56
2022/01/12 15:28:20;;;;;;;;;;;;;;;;;;4992959;28;19922;-55
2022/01/12 15:30:46;;;;;;;;;;;;;;;;;;4981803;28;19925;-55
2022/01/12 15:33:11;;;;;;;;;;;;;;;;;;4992878;28;19961;-56
2022/01/12 15:35:37;;;;;;;;;;;;;;;;;;4992777;28;19926;-56
2022/01/12 15:38:02;;;;;;;;;;;;;;;;;;4976863;28;19928;-55
2022/01/12 15:40:28;;;;;;;;;;;;;;;;;;4991872;28;19933;-56
2022/01/12 15:42:53;;;;;;;;;;;;;;;;;;4990638;28;19937;-56
2022/01/12 15:45:18;;;;;;;;;;;;;;;;;;4989849;28;19926;-57
2022/01/12 15:47:44;;;;;;;;;;;;;;;;;;4991719;28;20021;-57
2022/01/12 15:50:09;;;;;;;;;;;;;;;;;;4992628;28;19940;-56
2022/01/12 15:52:35;;;;;;;;;;;;;;;;;;4990597;28;19928;-56
2022/01/12 15:55:00;;;;;;;;;;;;;;;;;;4990779;28;19930;-56
2022/01/12 15:57:25;;;;;;;;;;;;;;;;;;4990298;28;20003;-56
2022/01/12 15:59:52;;;;;;;;;;;;;;;;;;4991884;28;19922;-54
2022/01/12 16:02:17;;;;;;;;;;;;;;;;;;4989141;28;19941;-56
2022/01/12 16:04:43;;;;;;;;;;;;;;;;;;4990702;28;19952;-56
2022/01/12 16:07:09;;;;;;;;;;;;;;;;;;4993660;28;19932;-56
2022/01/12 16:09:34;;;;;;;;;;;;;;;;;;4991215;28;19988;-56
2022/01/12 16:12:00;;;;;;;;;;;;;;;;;;4992817;28;19925;-56
2022/01/12 16:14:26;;;;;;;;;;;;;;;;;;4994585;28;19987;-56
2022/01/12 16:16:51;;;;;;;;;;;;;;;;;;4993858;28;19923;-56
2022/01/12 16:19:16;;;;;;;;;;;;;;;;;;4992517;28;20362;-57
2022/01/12 16:21:46;;;;;;;;;;;;;;;;;;4990950;28;19965;-56
2022/01/12 16:24:11;;;;;;;;;;;;;;;;;;4993017;28;19930;-56
2022/01/12 16:26:36;;;;;;;;;;;;;;;;;;4991360;28;19932;-57
2022/01/12 16:29:04;;;;;;;;;;;;;;;;;;4992207;28;20891;-57
2022/01/12 16:31:29;;;;;;;;;;;;;;;;;;5004449;28;20392;-57
2022/01/12 16:33:55;;;;;;;;;;;;;;;;;;4992654;28;19926;-57
2022/01/12 16:36:22;;;;;;;;;;;;;;;;;;4991397;28;19967;-56
2022/01/12 16:38:48;;;;;;;;;;;;;;;;;;4990960;28;19928;-55
2022/01/12 16:41:13;;;;;;;;;;;;;;;;;;4990431;28;19922;-57
2022/01/12 16:43:39;;;;;;;;;;;;;;;;;;4989834;28;20651;-56
2022/01/12 16:46:06;;;;;;;;;;;;;;;;;;4991101;28;19933;-56
2022/01/12 16:48:32;;;;;;;;;;;;;;;;;;4989590;28;19948;-57
2022/01/12 16:50:57;;;;;;;;;;;;;;;;;;4991309;28;21819;-56
2022/01/12 16:53:23;;;;;;;;;;;;;;;;;;4988707;28;19926;-57
2022/01/12 16:55:48;;;;;;;;;;;;;;;;;;4990635;28;20376;-54
2022/01/12 16:58:13;;;;;;;;;;;;;;;;;;4991913;28;19925;-57
2022/01/12 17:00:39;;;;;;;;;;;;;;;;;;4989728;28;20013;-56
2022/01/12 17:03:04;;;;;;;;;;;;;;;;;;4990297;28;20025;-55
2022/01/12 17:05:30;;;;;;;;;;;;;;;;;;4989120;28;20394;-57
2022/01/12 17:07:55;;;;;;;;;;;;;;;;;;4989532;28;19921;-56
2022/01/12 17:10:21;;;;;;;;;;;;;;;;;;4989218;28;20491;-55
2022/01/12 17:12:46;;;;;;;;;;;;;;;;;;4990349;28;20515;-54
2022/01/12 17:15:12;;;;;;;;;;;;;;;;;;4989247;28;19933;-57
2022/01/12 17:17:37;;;;;;;;;;;;;;;;;;4988842;28;19972;-56
2022/01/12 17:20:03;;;;;;;;;;;;;;;;;;5004730;28;19922;-56
2022/01/12 17:22:29;;;;;;;;;;;;;;;;;;4988283;28;19930;-57
2022/01/12 17:24:54;;;;;;;;;;;;;;;;;;4990886;28;20382;-57
2022/01/12 17:27:20;;;;;;;;;;;;;;;;;;4991180;28;20349;-57
2022/01/12 17:29:45;;;;;;;;;;;;;;;;;;4990712;28;19960;-56
2022/01/12 17:32:11;;;;;;;;;;;;;;;;;;4991529;28;20009;-57
2022/01/12 17:34:36;;;;;;;;;;;;;;;;;;4989399;28;19932;-57
2022/01/12 17:37:03;;;;;;;;;;;;;;;;;;4992226;28;20741;-57
2022/01/12 17:39:28;;;;;;;;;;;;;;;;;;4992574;28;19961;-57
2022/01/12 17:41:54;;;;;;;;;;;;;;;;;;4991851;28;19957;-57
2022/01/12 17:44:20;;;;;;;;;;;;;;;;;;4994515;28;19932;-57
2022/01/12 17:46:45;;;;;;;;;;;;;;;;;;4997272;28;20306;-57
2022/01/12 17:49:18;;;;;;;;;;;;;;;;;;4996479;28;19925;-57
2022/01/12 17:51:44;;;;;;;;;;;;;;;;;;4994089;28;19933;-56